sensor_id;sensor_type;location;lat;lon;timestamp;P1;durP1;ratioP1;P2;durP2;ratioP2
14799;SDS011;7491;57.750;11.970;2023-02-18T00:02:21;20.92;;;4.65;;
14799;SDS011;7491;57.750;11.970;2023-02-18T00:04:53;21.30;;;5.50;;
14799;SDS011;7491;57.750;11.970;2023-02-18T00:07:19;21.48;;;4.13;;
14799;SDS011;7491;57.750;11.970;2023-02-18T00:09:46;27.45;;;4.45;;
14799;SDS011;7491;57.750;11.970;2023-02-18T00:12:12;17.00;;;5.15;;
14799;SDS011;7491;57.750;11.970;2023-02-18T00:14:39;17.35;;;4.82;;
14799;SDS011;7491;57.750;11.970;2023-02-18T00:17:06;15.65;;;3.45;;
14799;SDS011;7491;57.750;11.970;2023-02-18T00:19:33;21.02;;;4.10;;
14799;SDS011;7491;57.750;11.970;2023-02-18T00:21:59;16.40;;;4.65;;
14799;SDS011;7491;57.750;11.970;2023-02-18T00:24:26;15.05;;;4.38;;
14799;SDS011;7491;57.750;11.970;2023-02-18T00:26:52;17.08;;;4.38;;
14799;SDS011;7491;57.750;11.970;2023-02-18T00:29:19;18.00;;;4.72;;
14799;SDS011;7491;57.750;11.970;2023-02-18T00:31:45;14.05;;;3.95;;
14799;SDS011;7491;57.750;11.970;2023-02-18T00:34:13;18.88;;;3.42;;
14799;SDS011;7491;57.750;11.970;2023-02-18T00:36:40;19.77;;;4.13;;
14799;SDS011;7491;57.750;11.970;2023-02-18T00:39:07;17.98;;;4.15;;
14799;SDS011;7491;57.750;11.970;2023-02-18T00:41:34;18.90;;;4.60;;
14799;SDS011;7491;57.750;11.970;2023-02-18T00:44:06;22.52;;;4.93;;
14799;SDS011;7491;57.750;11.970;2023-02-18T00:46:35;17.23;;;3.92;;
14799;SDS011;7491;57.750;11.970;2023-02-18T00:49:03;19.17;;;5.15;;
14799;SDS011;7491;57.750;11.970;2023-02-18T00:51:31;19.67;;;3.88;;
14799;SDS011;7491;57.750;11.970;2023-02-18T00:53:57;22.38;;;4.88;;
14799;SDS011;7491;57.750;11.970;2023-02-18T00:56:24;14.68;;;3.50;;
14799;SDS011;7491;57.750;11.970;2023-02-18T00:58:50;22.33;;;3.85;;
14799;SDS011;7491;57.750;11.970;2023-02-18T01:01:17;23.60;;;4.85;;
14799;SDS011;7491;57.750;11.970;2023-02-18T01:03:44;24.27;;;3.63;;
14799;SDS011;7491;57.750;11.970;2023-02-18T01:06:12;15.57;;;3.90;;
14799;SDS011;7491;57.750;11.970;2023-02-18T01:08:40;20.67;;;3.70;;
14799;SDS011;7491;57.750;11.970;2023-02-18T01:11:08;17.95;;;3.60;;
14799;SDS011;7491;57.750;11.970;2023-02-18T01:13:35;12.75;;;3.92;;
14799;SDS011;7491;57.750;11.970;2023-02-18T01:16:01;11.25;;;2.20;;
14799;SDS011;7491;57.750;11.970;2023-02-18T01:18:28;14.63;;;3.55;;
14799;SDS011;7491;57.750;11.970;2023-02-18T01:20:54;11.30;;;2.17;;
14799;SDS011;7491;57.750;11.970;2023-02-18T01:23:21;20.58;;;3.50;;
14799;SDS011;7491;57.750;11.970;2023-02-18T01:25:48;17.40;;;3.72;;
14799;SDS011;7491;57.750;11.970;2023-02-18T01:28:15;17.88;;;4.00;;
14799;SDS011;7491;57.750;11.970;2023-02-18T01:30:42;15.52;;;3.90;;
14799;SDS011;7491;57.750;11.970;2023-02-18T01:33:09;18.65;;;3.95;;
14799;SDS011;7491;57.750;11.970;2023-02-18T01:35:36;9.95;;;2.50;;
14799;SDS011;7491;57.750;11.970;2023-02-18T01:38:03;17.83;;;4.00;;
14799;SDS011;7491;57.750;11.970;2023-02-18T01:40:29;17.48;;;3.50;;
14799;SDS011;7491;57.750;11.970;2023-02-18T01:42:57;16.05;;;3.38;;
14799;SDS011;7491;57.750;11.970;2023-02-18T01:48:24;13.45;;;3.03;;
14799;SDS011;7491;57.750;11.970;2023-02-18T01:50:52;13.50;;;3.33;;
14799;SDS011;7491;57.750;11.970;2023-02-18T01:53:19;10.85;;;3.25;;
14799;SDS011;7491;57.750;11.970;2023-02-18T01:55:47;19.55;;;2.95;;
14799;SDS011;7491;57.750;11.970;2023-02-18T01:58:15;11.10;;;2.30;;
14799;SDS011;7491;57.750;11.970;2023-02-18T02:00:42;14.02;;;2.53;;
14799;SDS011;7491;57.750;11.970;2023-02-18T02:03:08;9.68;;;1.88;;
14799;SDS011;7491;57.750;11.970;2023-02-18T02:05:34;9.98;;;2.47;;
14799;SDS011;7491;57.750;11.970;2023-02-18T02:08:01;12.23;;;1.95;;
14799;SDS011;7491;57.750;11.970;2023-02-18T02:10:29;12.95;;;2.38;;
14799;SDS011;7491;57.750;11.970;2023-02-18T02:13:01;12.27;;;3.08;;
14799;SDS011;7491;57.750;11.970;2023-02-18T02:15:35;13.32;;;2.17;;
14799;SDS011;7491;57.750;11.970;2023-02-18T02:18:14;16.70;;;3.58;;
14799;SDS011;7491;57.750;11.970;2023-02-18T02:23:36;11.15;;;2.60;;
14799;SDS011;7491;57.750;11.970;2023-02-18T02:29:04;6.72;;;1.98;;
14799;SDS011;7491;57.750;11.970;2023-02-18T02:31:56;7.03;;;1.77;;
14799;SDS011;7491;57.750;11.970;2023-02-18T02:34:35;8.80;;;2.13;;
14799;SDS011;7491;57.750;11.970;2023-02-18T02:37:05;8.07;;;2.58;;
14799;SDS011;7491;57.750;11.970;2023-02-18T02:39:36;15.23;;;2.45;;
14799;SDS011;7491;57.750;11.970;2023-02-18T02:42:05;10.10;;;2.35;;
14799;SDS011;7491;57.750;11.970;2023-02-18T02:44:36;13.05;;;2.70;;
14799;SDS011;7491;57.750;11.970;2023-02-18T02:47:06;7.75;;;2.38;;
14799;SDS011;7491;57.750;11.970;2023-02-18T02:49:36;14.70;;;3.20;;
14799;SDS011;7491;57.750;11.970;2023-02-18T02:52:05;13.55;;;2.08;;
14799;SDS011;7491;57.750;11.970;2023-02-18T02:54:34;12.27;;;1.85;;
14799;SDS011;7491;57.750;11.970;2023-02-18T02:57:04;9.90;;;1.70;;
14799;SDS011;7491;57.750;11.970;2023-02-18T02:59:31;9.73;;;1.75;;
14799;SDS011;7491;57.750;11.970;2023-02-18T03:02:01;13.63;;;2.90;;
14799;SDS011;7491;57.750;11.970;2023-02-18T03:04:44;13.05;;;3.28;;
14799;SDS011;7491;57.750;11.970;2023-02-18T03:10:04;11.60;;;2.35;;
14799;SDS011;7491;57.750;11.970;2023-02-18T03:12:35;12.98;;;2.30;;
14799;SDS011;7491;57.750;11.970;2023-02-18T03:15:04;13.43;;;2.88;;
14799;SDS011;7491;57.750;11.970;2023-02-18T03:17:34;17.13;;;3.25;;
14799;SDS011;7491;57.750;11.970;2023-02-18T03:20:04;12.90;;;2.42;;
14799;SDS011;7491;57.750;11.970;2023-02-18T03:22:35;12.63;;;3.08;;
14799;SDS011;7491;57.750;11.970;2023-02-18T03:25:03;11.63;;;2.08;;
14799;SDS011;7491;57.750;11.970;2023-02-18T03:27:31;12.48;;;2.05;;
14799;SDS011;7491;57.750;11.970;2023-02-18T03:29:59;12.93;;;2.80;;
14799;SDS011;7491;57.750;11.970;2023-02-18T03:32:26;10.75;;;2.50;;
14799;SDS011;7491;57.750;11.970;2023-02-18T03:34:54;9.35;;;2.33;;
14799;SDS011;7491;57.750;11.970;2023-02-18T03:37:24;12.73;;;2.95;;
14799;SDS011;7491;57.750;11.970;2023-02-18T03:39:51;15.18;;;3.30;;
14799;SDS011;7491;57.750;11.970;2023-02-18T03:42:23;17.27;;;3.47;;
14799;SDS011;7491;57.750;11.970;2023-02-18T03:44:50;15.90;;;3.22;;
14799;SDS011;7491;57.750;11.970;2023-02-18T03:47:16;16.95;;;3.15;;
14799;SDS011;7491;57.750;11.970;2023-02-18T03:49:43;17.08;;;2.85;;
14799;SDS011;7491;57.750;11.970;2023-02-18T03:52:09;11.93;;;3.05;;
14799;SDS011;7491;57.750;11.970;2023-02-18T03:54:37;19.95;;;3.58;;
14799;SDS011;7491;57.750;11.970;2023-02-18T03:57:03;17.88;;;2.95;;
14799;SDS011;7491;57.750;11.970;2023-02-18T03:59:30;20.23;;;3.50;;
14799;SDS011;7491;57.750;11.970;2023-02-18T04:01:56;14.85;;;3.65;;
14799;SDS011;7491;57.750;11.970;2023-02-18T04:04:23;20.42;;;4.22;;
14799;SDS011;7491;57.750;11.970;2023-02-18T04:06:49;13.18;;;2.90;;
14799;SDS011;7491;57.750;11.970;2023-02-18T04:09:15;13.55;;;2.78;;
14799;SDS011;7491;57.750;11.970;2023-02-18T04:11:43;21.45;;;3.25;;
14799;SDS011;7491;57.750;11.970;2023-02-18T04:14:10;10.25;;;2.78;;
14799;SDS011;7491;57.750;11.970;2023-02-18T04:16:38;14.23;;;2.25;;
14799;SDS011;7491;57.750;11.970;2023-02-18T04:19:05;13.60;;;3.13;;
14799;SDS011;7491;57.750;11.970;2023-02-18T04:21:31;17.33;;;3.75;;
14799;SDS011;7491;57.750;11.970;2023-02-18T04:23:58;15.13;;;3.25;;
14799;SDS011;7491;57.750;11.970;2023-02-18T04:26:24;13.15;;;3.20;;
14799;SDS011;7491;57.750;11.970;2023-02-18T04:28:52;12.43;;;3.10;;
14799;SDS011;7491;57.750;11.970;2023-02-18T04:31:19;14.20;;;2.50;;
14799;SDS011;7491;57.750;11.970;2023-02-18T04:33:45;22.02;;;3.38;;
14799;SDS011;7491;57.750;11.970;2023-02-18T04:36:11;13.18;;;3.55;;
14799;SDS011;7491;57.750;11.970;2023-02-18T04:38:38;13.73;;;2.22;;
14799;SDS011;7491;57.750;11.970;2023-02-18T04:41:06;14.88;;;2.63;;
14799;SDS011;7491;57.750;11.970;2023-02-18T04:43:32;17.38;;;3.80;;
14799;SDS011;7491;57.750;11.970;2023-02-18T04:46:00;14.13;;;2.55;;
14799;SDS011;7491;57.750;11.970;2023-02-18T04:48:26;15.55;;;3.47;;
14799;SDS011;7491;57.750;11.970;2023-02-18T04:50:53;13.00;;;2.97;;
14799;SDS011;7491;57.750;11.970;2023-02-18T04:53:19;15.93;;;2.50;;
14799;SDS011;7491;57.750;11.970;2023-02-18T04:55:48;10.68;;;2.33;;
14799;SDS011;7491;57.750;11.970;2023-02-18T04:58:14;18.23;;;3.85;;
14799;SDS011;7491;57.750;11.970;2023-02-18T05:00:41;20.05;;;3.20;;
14799;SDS011;7491;57.750;11.970;2023-02-18T05:03:08;14.90;;;3.08;;
14799;SDS011;7491;57.750;11.970;2023-02-18T05:05:35;20.77;;;3.50;;
14799;SDS011;7491;57.750;11.970;2023-02-18T05:08:01;13.52;;;3.22;;
14799;SDS011;7491;57.750;11.970;2023-02-18T05:10:28;13.65;;;3.25;;
14799;SDS011;7491;57.750;11.970;2023-02-18T05:12:55;17.17;;;3.22;;
14799;SDS011;7491;57.750;11.970;2023-02-18T05:15:21;15.63;;;2.97;;
14799;SDS011;7491;57.750;11.970;2023-02-18T05:17:48;15.85;;;3.30;;
14799;SDS011;7491;57.750;11.970;2023-02-18T05:20:15;17.52;;;3.03;;
14799;SDS011;7491;57.750;11.970;2023-02-18T05:22:42;15.00;;;2.95;;
14799;SDS011;7491;57.750;11.970;2023-02-18T05:25:08;17.00;;;2.85;;
14799;SDS011;7491;57.750;11.970;2023-02-18T05:27:35;18.40;;;3.03;;
14799;SDS011;7491;57.750;11.970;2023-02-18T05:30:01;17.48;;;3.78;;
14799;SDS011;7491;57.750;11.970;2023-02-18T05:32:28;20.45;;;4.22;;
14799;SDS011;7491;57.750;11.970;2023-02-18T05:34:54;18.35;;;3.78;;
14799;SDS011;7491;57.750;11.970;2023-02-18T05:37:22;22.50;;;3.72;;
14799;SDS011;7491;57.750;11.970;2023-02-18T05:39:48;16.00;;;2.83;;
14799;SDS011;7491;57.750;11.970;2023-02-18T05:42:14;33.45;;;3.92;;
14799;SDS011;7491;57.750;11.970;2023-02-18T05:44:41;20.15;;;4.18;;
14799;SDS011;7491;57.750;11.970;2023-02-18T05:47:08;13.93;;;2.30;;
14799;SDS011;7491;57.750;11.970;2023-02-18T05:49:35;17.63;;;2.95;;
14799;SDS011;7491;57.750;11.970;2023-02-18T05:52:02;19.73;;;3.25;;
14799;SDS011;7491;57.750;11.970;2023-02-18T05:54:30;16.45;;;3.70;;
14799;SDS011;7491;57.750;11.970;2023-02-18T05:56:57;15.73;;;2.92;;
14799;SDS011;7491;57.750;11.970;2023-02-18T05:59:23;16.15;;;2.53;;
14799;SDS011;7491;57.750;11.970;2023-02-18T06:01:50;13.15;;;2.47;;
14799;SDS011;7491;57.750;11.970;2023-02-18T06:04:16;18.33;;;2.67;;
14799;SDS011;7491;57.750;11.970;2023-02-18T06:06:43;15.30;;;2.33;;
14799;SDS011;7491;57.750;11.970;2023-02-18T06:09:09;9.40;;;1.73;;
14799;SDS011;7491;57.750;11.970;2023-02-18T06:11:37;13.77;;;2.70;;
14799;SDS011;7491;57.750;11.970;2023-02-18T06:14:03;14.65;;;2.28;;
14799;SDS011;7491;57.750;11.970;2023-02-18T06:16:30;8.77;;;2.08;;
14799;SDS011;7491;57.750;11.970;2023-02-18T06:18:57;12.57;;;2.30;;
14799;SDS011;7491;57.750;11.970;2023-02-18T06:21:23;13.32;;;2.47;;
14799;SDS011;7491;57.750;11.970;2023-02-18T06:23:50;11.93;;;2.30;;
14799;SDS011;7491;57.750;11.970;2023-02-18T06:26:16;15.50;;;2.15;;
14799;SDS011;7491;57.750;11.970;2023-02-18T06:28:44;10.68;;;2.85;;
14799;SDS011;7491;57.750;11.970;2023-02-18T06:31:10;9.40;;;1.88;;
14799;SDS011;7491;57.750;11.970;2023-02-18T06:33:37;17.88;;;2.75;;
14799;SDS011;7491;57.750;11.970;2023-02-18T06:36:04;15.45;;;1.90;;
14799;SDS011;7491;57.750;11.970;2023-02-18T06:38:32;16.38;;;2.67;;
14799;SDS011;7491;57.750;11.970;2023-02-18T06:41:00;15.45;;;3.15;;
14799;SDS011;7491;57.750;11.970;2023-02-18T06:43:27;13.30;;;2.75;;
14799;SDS011;7491;57.750;11.970;2023-02-18T06:45:54;18.65;;;2.90;;
14799;SDS011;7491;57.750;11.970;2023-02-18T06:48:21;10.80;;;2.70;;
14799;SDS011;7491;57.750;11.970;2023-02-18T06:50:48;20.88;;;2.65;;
14799;SDS011;7491;57.750;11.970;2023-02-18T06:53:14;13.13;;;2.28;;
14799;SDS011;7491;57.750;11.970;2023-02-18T06:55:41;16.38;;;2.72;;
14799;SDS011;7491;57.750;11.970;2023-02-18T06:58:08;12.90;;;2.47;;
14799;SDS011;7491;57.750;11.970;2023-02-18T07:00:35;19.27;;;3.60;;
14799;SDS011;7491;57.750;11.970;2023-02-18T07:03:04;22.90;;;2.95;;
14799;SDS011;7491;57.750;11.970;2023-02-18T07:05:30;10.80;;;2.05;;
14799;SDS011;7491;57.750;11.970;2023-02-18T07:07:57;15.43;;;3.03;;
14799;SDS011;7491;57.750;11.970;2023-02-18T07:10:23;14.93;;;1.83;;
14799;SDS011;7491;57.750;11.970;2023-02-18T07:12:49;15.95;;;3.20;;
14799;SDS011;7491;57.750;11.970;2023-02-18T07:15:16;13.73;;;2.53;;
14799;SDS011;7491;57.750;11.970;2023-02-18T07:17:45;13.93;;;2.17;;
14799;SDS011;7491;57.750;11.970;2023-02-18T07:20:13;12.00;;;1.75;;
14799;SDS011;7491;57.750;11.970;2023-02-18T07:22:39;13.40;;;2.47;;
14799;SDS011;7491;57.750;11.970;2023-02-18T07:25:06;13.60;;;2.35;;
14799;SDS011;7491;57.750;11.970;2023-02-18T07:27:32;18.83;;;3.13;;
14799;SDS011;7491;57.750;11.970;2023-02-18T07:29:59;14.85;;;2.88;;
14799;SDS011;7491;57.750;11.970;2023-02-18T07:32:25;18.75;;;2.13;;
14799;SDS011;7491;57.750;11.970;2023-02-18T07:34:52;13.95;;;2.92;;
14799;SDS011;7491;57.750;11.970;2023-02-18T07:37:20;19.30;;;2.45;;
14799;SDS011;7491;57.750;11.970;2023-02-18T07:39:46;17.83;;;2.95;;
14799;SDS011;7491;57.750;11.970;2023-02-18T07:42:13;14.35;;;2.65;;
14799;SDS011;7491;57.750;11.970;2023-02-18T07:44:39;13.10;;;3.03;;
14799;SDS011;7491;57.750;11.970;2023-02-18T07:47:06;11.63;;;2.33;;
14799;SDS011;7491;57.750;11.970;2023-02-18T07:49:33;12.10;;;1.90;;
14799;SDS011;7491;57.750;11.970;2023-02-18T07:52:00;13.88;;;2.90;;
14799;SDS011;7491;57.750;11.970;2023-02-18T07:54:28;13.40;;;2.45;;
14799;SDS011;7491;57.750;11.970;2023-02-18T07:56:54;13.10;;;2.65;;
14799;SDS011;7491;57.750;11.970;2023-02-18T07:59:21;12.35;;;2.20;;
14799;SDS011;7491;57.750;11.970;2023-02-18T08:01:47;14.52;;;2.15;;
14799;SDS011;7491;57.750;11.970;2023-02-18T08:04:14;15.75;;;2.50;;
14799;SDS011;7491;57.750;11.970;2023-02-18T08:06:41;12.43;;;2.40;;
14799;SDS011;7491;57.750;11.970;2023-02-18T08:09:08;13.40;;;2.55;;
14799;SDS011;7491;57.750;11.970;2023-02-18T08:11:36;15.07;;;2.33;;
14799;SDS011;7491;57.750;11.970;2023-02-18T08:14:02;11.75;;;2.75;;
14799;SDS011;7491;57.750;11.970;2023-02-18T08:16:29;11.80;;;2.28;;
14799;SDS011;7491;57.750;11.970;2023-02-18T08:18:56;10.75;;;2.33;;
14799;SDS011;7491;57.750;11.970;2023-02-18T08:21:23;13.50;;;3.67;;
14799;SDS011;7491;57.750;11.970;2023-02-18T08:23:49;13.93;;;2.83;;
14799;SDS011;7491;57.750;11.970;2023-02-18T08:26:16;14.05;;;1.77;;
14799;SDS011;7491;57.750;11.970;2023-02-18T08:28:44;13.02;;;2.10;;
14799;SDS011;7491;57.750;11.970;2023-02-18T08:31:18;6.75;;;1.80;;
14799;SDS011;7491;57.750;11.970;2023-02-18T08:33:44;11.50;;;2.10;;
14799;SDS011;7491;57.750;11.970;2023-02-18T08:36:11;14.38;;;2.55;;
14799;SDS011;7491;57.750;11.970;2023-02-18T08:38:37;11.30;;;1.85;;
14799;SDS011;7491;57.750;11.970;2023-02-18T08:41:04;10.40;;;1.92;;
14799;SDS011;7491;57.750;11.970;2023-02-18T08:43:31;8.18;;;2.03;;
14799;SDS011;7491;57.750;11.970;2023-02-18T08:45:58;12.77;;;1.83;;
14799;SDS011;7491;57.750;11.970;2023-02-18T08:48:25;14.48;;;2.00;;
14799;SDS011;7491;57.750;11.970;2023-02-18T08:50:52;9.93;;;1.98;;
14799;SDS011;7491;57.750;11.970;2023-02-18T08:53:18;17.33;;;2.20;;
14799;SDS011;7491;57.750;11.970;2023-02-18T08:55:45;9.57;;;1.63;;
14799;SDS011;7491;57.750;11.970;2023-02-18T08:58:11;12.70;;;2.97;;
14799;SDS011;7491;57.750;11.970;2023-02-18T09:00:38;12.93;;;2.10;;
14799;SDS011;7491;57.750;11.970;2023-02-18T09:03:08;11.15;;;2.83;;
14799;SDS011;7491;57.750;11.970;2023-02-18T09:05:35;12.55;;;2.13;;
14799;SDS011;7491;57.750;11.970;2023-02-18T09:08:04;15.57;;;1.45;;
14799;SDS011;7491;57.750;11.970;2023-02-18T09:10:30;12.95;;;2.42;;
14799;SDS011;7491;57.750;11.970;2023-02-18T09:12:56;11.25;;;2.13;;
14799;SDS011;7491;57.750;11.970;2023-02-18T09:15:23;14.38;;;2.47;;
14799;SDS011;7491;57.750;11.970;2023-02-18T09:17:49;14.68;;;2.47;;
14799;SDS011;7491;57.750;11.970;2023-02-18T09:20:17;10.65;;;1.98;;
14799;SDS011;7491;57.750;11.970;2023-02-18T09:22:44;8.70;;;1.77;;
14799;SDS011;7491;57.750;11.970;2023-02-18T09:25:10;10.40;;;1.98;;
14799;SDS011;7491;57.750;11.970;2023-02-18T09:27:37;8.13;;;1.95;;
14799;SDS011;7491;57.750;11.970;2023-02-18T09:30:04;20.20;;;2.75;;
14799;SDS011;7491;57.750;11.970;2023-02-18T09:32:30;14.70;;;2.28;;
14799;SDS011;7491;57.750;11.970;2023-02-18T09:34:57;11.88;;;1.88;;
14799;SDS011;7491;57.750;11.970;2023-02-18T09:37:24;10.13;;;1.45;;
14799;SDS011;7491;57.750;11.970;2023-02-18T09:39:51;7.28;;;2.55;;
14799;SDS011;7491;57.750;11.970;2023-02-18T09:42:17;6.32;;;1.70;;
14799;SDS011;7491;57.750;11.970;2023-02-18T09:44:46;9.07;;;2.50;;
14799;SDS011;7491;57.750;11.970;2023-02-18T09:47:15;11.75;;;2.08;;
14799;SDS011;7491;57.750;11.970;2023-02-18T09:49:43;9.38;;;1.85;;
14799;SDS011;7491;57.750;11.970;2023-02-18T09:52:10;9.15;;;1.60;;
14799;SDS011;7491;57.750;11.970;2023-02-18T09:54:39;9.77;;;2.13;;
14799;SDS011;7491;57.750;11.970;2023-02-18T09:57:05;7.22;;;2.35;;
14799;SDS011;7491;57.750;11.970;2023-02-18T09:59:40;14.23;;;1.95;;
14799;SDS011;7491;57.750;11.970;2023-02-18T10:02:08;8.30;;;1.52;;
14799;SDS011;7491;57.750;11.970;2023-02-18T10:04:36;12.80;;;1.83;;
14799;SDS011;7491;57.750;11.970;2023-02-18T10:07:05;11.07;;;2.10;;
14799;SDS011;7491;57.750;11.970;2023-02-18T10:09:32;12.90;;;1.90;;
14799;SDS011;7491;57.750;11.970;2023-02-18T10:12:03;13.63;;;2.28;;
14799;SDS011;7491;57.750;11.970;2023-02-18T10:14:30;4.18;;;1.45;;
14799;SDS011;7491;57.750;11.970;2023-02-18T10:16:57;11.68;;;1.75;;
14799;SDS011;7491;57.750;11.970;2023-02-18T10:19:24;9.80;;;1.88;;
14799;SDS011;7491;57.750;11.970;2023-02-18T10:21:53;8.00;;;1.50;;
14799;SDS011;7491;57.750;11.970;2023-02-18T10:24:24;5.85;;;2.00;;
14799;SDS011;7491;57.750;11.970;2023-02-18T10:26:52;5.43;;;1.73;;
14799;SDS011;7491;57.750;11.970;2023-02-18T10:29:21;7.18;;;1.65;;
14799;SDS011;7491;57.750;11.970;2023-02-18T10:31:49;9.65;;;2.05;;
14799;SDS011;7491;57.750;11.970;2023-02-18T10:34:18;7.68;;;1.70;;
14799;SDS011;7491;57.750;11.970;2023-02-18T10:36:48;8.02;;;1.20;;
14799;SDS011;7491;57.750;11.970;2023-02-18T10:39:19;6.05;;;1.75;;
14799;SDS011;7491;57.750;11.970;2023-02-18T10:41:50;8.55;;;1.65;;
14799;SDS011;7491;57.750;11.970;2023-02-18T10:44:23;7.72;;;1.55;;
14799;SDS011;7491;57.750;11.970;2023-02-18T10:46:54;8.20;;;1.65;;
14799;SDS011;7491;57.750;11.970;2023-02-18T10:49:29;5.53;;;1.48;;
14799;SDS011;7491;57.750;11.970;2023-02-18T10:51:58;6.82;;;1.15;;
14799;SDS011;7491;57.750;11.970;2023-02-18T10:54:27;9.57;;;1.98;;
14799;SDS011;7491;57.750;11.970;2023-02-18T10:57:13;4.88;;;1.40;;
14799;SDS011;7491;57.750;11.970;2023-02-18T10:59:47;6.60;;;1.85;;
14799;SDS011;7491;57.750;11.970;2023-02-18T11:02:23;7.68;;;1.48;;
14799;SDS011;7491;57.750;11.970;2023-02-18T11:04:49;8.63;;;1.45;;
14799;SDS011;7491;57.750;11.970;2023-02-18T11:07:18;4.78;;;1.30;;
14799;SDS011;7491;57.750;11.970;2023-02-18T11:09:47;8.00;;;1.48;;
14799;SDS011;7491;57.750;11.970;2023-02-18T11:12:14;5.40;;;1.17;;
14799;SDS011;7491;57.750;11.970;2023-02-18T11:14:43;6.65;;;1.38;;
14799;SDS011;7491;57.750;11.970;2023-02-18T11:17:20;8.75;;;1.08;;
14799;SDS011;7491;57.750;11.970;2023-02-18T11:19:51;13.13;;;1.70;;
14799;SDS011;7491;57.750;11.970;2023-02-18T11:22:19;9.75;;;1.75;;
14799;SDS011;7491;57.750;11.970;2023-02-18T11:24:45;5.03;;;1.20;;
14799;SDS011;7491;57.750;11.970;2023-02-18T11:27:17;12.70;;;1.60;;
14799;SDS011;7491;57.750;11.970;2023-02-18T11:29:47;10.77;;;1.30;;
14799;SDS011;7491;57.750;11.970;2023-02-18T11:32:14;12.15;;;1.92;;
14799;SDS011;7491;57.750;11.970;2023-02-18T11:34:42;5.22;;;1.10;;
14799;SDS011;7491;57.750;11.970;2023-02-18T11:37:11;5.57;;;1.38;;
14799;SDS011;7491;57.750;11.970;2023-02-18T11:39:40;3.40;;;1.05;;
14799;SDS011;7491;57.750;11.970;2023-02-18T11:42:10;10.50;;;1.50;;
14799;SDS011;7491;57.750;11.970;2023-02-18T11:44:40;8.00;;;1.73;;
14799;SDS011;7491;57.750;11.970;2023-02-18T11:47:18;6.47;;;1.38;;
14799;SDS011;7491;57.750;11.970;2023-02-18T11:49:59;6.90;;;1.27;;
14799;SDS011;7491;57.750;11.970;2023-02-18T11:52:27;9.98;;;1.50;;
14799;SDS011;7491;57.750;11.970;2023-02-18T11:55:00;4.40;;;0.98;;
14799;SDS011;7491;57.750;11.970;2023-02-18T11:57:28;11.98;;;4.97;;
14799;SDS011;7491;57.750;11.970;2023-02-18T11:59:55;5.90;;;1.63;;
14799;SDS011;7491;57.750;11.970;2023-02-18T12:02:33;5.03;;;1.17;;
14799;SDS011;7491;57.750;11.970;2023-02-18T12:05:04;1.88;;;0.82;;
14799;SDS011;7491;57.750;11.970;2023-02-18T12:07:39;5.88;;;1.00;;
14799;SDS011;7491;57.750;11.970;2023-02-18T12:10:10;4.13;;;1.10;;
14799;SDS011;7491;57.750;11.970;2023-02-18T12:12:42;5.40;;;1.10;;
14799;SDS011;7491;57.750;11.970;2023-02-18T12:15:11;3.40;;;0.98;;
14799;SDS011;7491;57.750;11.970;2023-02-18T12:17:42;5.97;;;1.00;;
14799;SDS011;7491;57.750;11.970;2023-02-18T12:20:30;4.20;;;0.90;;
14799;SDS011;7491;57.750;11.970;2023-02-18T12:23:07;2.80;;;0.82;;
14799;SDS011;7491;57.750;11.970;2023-02-18T12:25:38;6.45;;;0.98;;
14799;SDS011;7491;57.750;11.970;2023-02-18T12:28:13;1.52;;;0.75;;
14799;SDS011;7491;57.750;11.970;2023-02-18T12:30:47;4.40;;;1.20;;
14799;SDS011;7491;57.750;11.970;2023-02-18T12:33:18;4.50;;;1.00;;
14799;SDS011;7491;57.750;11.970;2023-02-18T12:35:58;7.25;;;0.85;;
14799;SDS011;7491;57.750;11.970;2023-02-18T12:41:23;6.63;;;1.13;;
14799;SDS011;7491;57.750;11.970;2023-02-18T12:43:56;3.33;;;0.70;;
14799;SDS011;7491;57.750;11.970;2023-02-18T12:46:40;7.85;;;1.20;;
14799;SDS011;7491;57.750;11.970;2023-02-18T12:49:14;4.20;;;1.40;;
14799;SDS011;7491;57.750;11.970;2023-02-18T12:51:46;5.22;;;1.10;;
14799;SDS011;7491;57.750;11.970;2023-02-18T12:54:25;3.72;;;1.00;;
14799;SDS011;7491;57.750;11.970;2023-02-18T12:56:57;15.98;;;1.48;;
14799;SDS011;7491;57.750;11.970;2023-02-18T12:59:31;7.10;;;1.08;;
14799;SDS011;7491;57.750;11.970;2023-02-18T13:02:00;4.50;;;1.20;;
14799;SDS011;7491;57.750;11.970;2023-02-18T13:04:35;4.68;;;0.90;;
14799;SDS011;7491;57.750;11.970;2023-02-18T13:07:22;3.83;;;0.90;;
14799;SDS011;7491;57.750;11.970;2023-02-18T13:09:56;7.18;;;1.30;;
14799;SDS011;7491;57.750;11.970;2023-02-18T13:12:25;2.28;;;0.93;;
14799;SDS011;7491;57.750;11.970;2023-02-18T13:15:03;8.98;;;1.38;;
14799;SDS011;7491;57.750;11.970;2023-02-18T13:17:32;6.80;;;1.15;;
14799;SDS011;7491;57.750;11.970;2023-02-18T13:20:04;6.18;;;1.20;;
14799;SDS011;7491;57.750;11.970;2023-02-18T13:22:32;11.57;;;1.50;;
14799;SDS011;7491;57.750;11.970;2023-02-18T13:24:59;4.70;;;1.00;;
14799;SDS011;7491;57.750;11.970;2023-02-18T13:27:28;6.47;;;1.20;;
14799;SDS011;7491;57.750;11.970;2023-02-18T13:29:57;3.33;;;0.73;;
14799;SDS011;7491;57.750;11.970;2023-02-18T13:32:26;6.60;;;1.25;;
14799;SDS011;7491;57.750;11.970;2023-02-18T13:34:57;4.32;;;0.80;;
14799;SDS011;7491;57.750;11.970;2023-02-18T13:37:27;6.20;;;1.20;;
14799;SDS011;7491;57.750;11.970;2023-02-18T13:39:58;8.98;;;1.00;;
14799;SDS011;7491;57.750;11.970;2023-02-18T13:45:23;15.35;;;1.80;;
14799;SDS011;7491;57.750;11.970;2023-02-18T13:47:50;10.18;;;1.45;;
14799;SDS011;7491;57.750;11.970;2023-02-18T13:50:24;3.40;;;0.88;;
14799;SDS011;7491;57.750;11.970;2023-02-18T13:52:56;3.80;;;0.90;;
14799;SDS011;7491;57.750;11.970;2023-02-18T13:55:28;5.65;;;1.25;;
14799;SDS011;7491;57.750;11.970;2023-02-18T13:58:00;4.45;;;1.00;;
14799;SDS011;7491;57.750;11.970;2023-02-18T14:00:33;4.18;;;0.85;;
14799;SDS011;7491;57.750;11.970;2023-02-18T14:03:18;3.60;;;1.02;;
14799;SDS011;7491;57.750;11.970;2023-02-18T14:05:45;2.15;;;0.75;;
14799;SDS011;7491;57.750;11.970;2023-02-18T14:08:12;3.13;;;0.68;;
14799;SDS011;7491;57.750;11.970;2023-02-18T14:10:40;5.43;;;0.90;;
14799;SDS011;7491;57.750;11.970;2023-02-18T14:15:52;3.40;;;1.10;;
14799;SDS011;7491;57.750;11.970;2023-02-18T14:18:24;5.00;;;0.98;;
14799;SDS011;7491;57.750;11.970;2023-02-18T14:20:51;9.52;;;0.80;;
14799;SDS011;7491;57.750;11.970;2023-02-18T14:23:38;7.25;;;1.27;;
14799;SDS011;7491;57.750;11.970;2023-02-18T14:26:07;6.07;;;1.15;;
14799;SDS011;7491;57.750;11.970;2023-02-18T14:28:35;4.32;;;1.10;;
14799;SDS011;7491;57.750;11.970;2023-02-18T14:31:05;5.90;;;0.85;;
14799;SDS011;7491;57.750;11.970;2023-02-18T14:33:45;5.55;;;1.13;;
14799;SDS011;7491;57.750;11.970;2023-02-18T14:36:17;8.00;;;1.30;;
14799;SDS011;7491;57.750;11.970;2023-02-18T14:38:51;7.32;;;1.30;;
14799;SDS011;7491;57.750;11.970;2023-02-18T14:41:28;3.17;;;0.77;;
14799;SDS011;7491;57.750;11.970;2023-02-18T14:44:02;2.97;;;0.70;;
14799;SDS011;7491;57.750;11.970;2023-02-18T14:46:38;3.30;;;0.70;;
14799;SDS011;7491;57.750;11.970;2023-02-18T14:49:14;4.47;;;1.25;;
14799;SDS011;7491;57.750;11.970;2023-02-18T14:51:43;3.17;;;0.90;;
14799;SDS011;7491;57.750;11.970;2023-02-18T14:54:15;5.05;;;1.15;;
14799;SDS011;7491;57.750;11.970;2023-02-18T14:56:48;19.35;;;1.85;;
14799;SDS011;7491;57.750;11.970;2023-02-18T14:59:16;4.10;;;0.68;;
14799;SDS011;7491;57.750;11.970;2023-02-18T15:01:45;6.25;;;1.30;;
14799;SDS011;7491;57.750;11.970;2023-02-18T15:04:14;1.95;;;1.00;;
14799;SDS011;7491;57.750;11.970;2023-02-18T15:06:41;2.83;;;0.73;;
14799;SDS011;7491;57.750;11.970;2023-02-18T15:09:12;7.20;;;1.27;;